Navigator Spirit — C6WL4 — position and weather

sailwx.info

Track history (hours):
 
Tides and Currents Weather Stations Pressure Air Temp Water Temp Dewpoint Dewpoint Depression Visibility Wind Speed Wind Dir Waves Ship Positions

Navigator Spirit

Last reported at 2017-Nov-19 06:26 UTC. Time now 2017-Nov-20 21:30 UTC.
Position N 37°14' W 029°51'.

Length 241 m; draft 11.8 m.

Type: Tanker. MMSI: 309198000.

Date/timePositionNaut miles runAvg speedWind from/ knotsBaromVisibWave heightAir tempDewpointWater temp
2017-Nov-19 06:26N 37°14' W 029°51'510.7
2017-Nov-19 06:00N 37°15' W 029°46'510.7
2017-Nov-19 05:30N 37°17' W 029°39'510.9
2017-Nov-19 05:00N 37°18' W 029°33'510.5
2017-Nov-19 04:30N 37°20' W 029°26'611.2
2017-Nov-19 04:01N 37°21' W 029°20'510.9
2017-Nov-19 03:30N 37°23' W 029°13'511.0
2017-Nov-19 03:00N 37°24' W 029°07'611.7
2017-Nov-19 02:30N 37°26' W 028°59'611.9
2017-Nov-19 02:00N 37°28' W 028°52'612.4
2017-Nov-19 01:31N 37°29' W 028°45'612.3
2017-Nov-19 01:00N 37°31' W 028°37'612.5
2017-Nov-19 00:30N 37°33' W 028°30'612.3
2017-Nov-19 00:00N 37°34' W 028°22'612.3
2017-Nov-18 23:30N 37°36' W 028°15'612.5
2017-Nov-18 23:00N 37°38' W 028°07'713.1
2017-Nov-18 22:30N 37°39' W 027°59'612.8
2017-Nov-18 22:00N 37°41' W 027°51'612.6
2017-Nov-18 21:30N 37°43' W 027°44'612.4
2017-Nov-18 21:00N 37°45' W 027°36'612.2
2017-Nov-18 20:30N 37°47' W 027°29'612.6
2017-Nov-18 20:00N 37°48' W 027°21'713.2
2017-Nov-18 19:30N 37°50' W 027°13'713.4
2017-Nov-18 19:00N 37°52' W 027°05'612.9
2017-Nov-18 18:31N 37°54' W 026°57'713.1
2017-Nov-18 18:00N 37°56' W 026°49'612.9
2017-Nov-18 17:30N 37°57' W 026°41'612.9
2017-Nov-18 17:01N 37°59' W 026°34'612.7
2017-Nov-18 16:30N 38°03' W 026°27'713.4
2017-Nov-18 16:00N 38°07' W 026°20'713.2
2017-Nov-18 15:30N 38°11' W 026°14'713.1
2017-Nov-18 15:00N 38°15' W 026°08'713.3
2017-Nov-18 14:30N 38°20' W 026°01'713.1
2017-Nov-18 14:00N 38°24' W 025°55'612.7
2017-Nov-18 13:31N 38°28' W 025°49'612.9
2017-Nov-18 13:00N 38°33' W 025°43'713.2
2017-Nov-18 12:30N 38°37' W 025°37'713.3
2017-Nov-18 12:01N 38°42' W 025°30'713.3
2017-Nov-18 11:30N 38°46' W 025°24'  
2017-Nov-15 08:36N 48°58' W 007°23'813.9
2017-Nov-15 08:00N 49°02' W 007°11'1514.1
2017-Nov-15 06:57N 49°07' W 006°50'613.2
2017-Nov-15 06:29N 49°09' W 006°41'713.5
2017-Nov-15 05:56N 49°12' W 006°31'713.8
2017-Nov-15 05:25N 49°14' W 006°20'613.5
2017-Nov-15 04:57N 49°17' W 006°12'712.4
2017-Nov-15 04:25N 49°20' W 006°02'612.7
2017-Nov-15 03:56N 49°21' W 005°53'712.8
2017-Nov-15 03:24N 49°23' W 005°43'512.6
2017-Nov-15 03:00N 49°25' W 005°36'6112.3
2017-Nov-14 22:03N 49°52' W 004°12'513.9
2017-Nov-14 21:43N 49°55' W 004°06'513.9
2017-Nov-14 21:21N 49°57' W 003°60'514.1
2017-Nov-14 21:00N 49°60' W 003°53'714.1
2017-Nov-14 20:31N 50°02' W 003°43'713.9
2017-Nov-14 20:00N 50°05' W 003°33'713.6
2017-Nov-14 19:30N 50°07' W 003°23'612.1
2017-Nov-14 19:00N 50°13' W 003°20'713.5
2017-Nov-14 18:30N 50°20' W 003°22'510.4
2017-Nov-14 18:00N 50°25' W 003°23'3 6.3
2017-Nov-14 17:30N 50°26' W 003°18'612.2
2017-Nov-14 17:00N 50°25' W 003°09'611.9
2017-Nov-14 16:30N 50°24' W 002°60'611.6
2017-Nov-14 16:00N 50°24' W 002°51'611.6
2017-Nov-14 15:30N 50°23' W 002°42'611.7
2017-Nov-14 15:00N 50°22' W 002°32'611.9
2017-Nov-14 14:30N 50°22' W 002°23'612.3
2017-Nov-14 14:00N 50°23' W 002°14'1013.0
2017-Nov-14 13:15N 50°24' W 001°58'713.7
2017-Nov-14 12:43N 50°24' W 001°47'1514.4
2017-Nov-14 11:41N 50°25' W 001°23'414.8
2017-Nov-14 11:25N 50°26' W 001°17'1014.9
2017-Nov-14 10:43N 50°27' W 001°01'2413.9
2017-Nov-14 08:57N 50°29' W 000°23'613.1
2017-Nov-14 08:30N 50°30' W 000°14'612.8
2017-Nov-14 08:00N 50°32' W 000°04'612.2
2017-Nov-14 07:30N 50°33' E 000°05'611.8
2017-Nov-14 07:00N 50°34' E 000°15'611.6
2017-Nov-14 06:30N 50°35' E 000°23'611.5
2017-Nov-14 06:00N 50°37' E 000°32'611.5
2017-Nov-14 05:30N 50°39' E 000°40'612.1
2017-Nov-14 05:00N 50°43' E 000°48'612.5
2017-Nov-14 04:30N 50°47' E 000°56'713.3
2017-Nov-14 03:59N 50°51' E 001°05'714.1
2017-Nov-14 03:30N 50°56' E 001°12'714.8
2017-Nov-14 03:01N 51°00' E 001°21'714.6
2017-Nov-14 02:30N 51°05' E 001°30'714.3
2017-Nov-14 02:00N 51°09' E 001°39'713.7
2017-Nov-14 01:30N 51°14' E 001°47'713.1
2017-Nov-14 01:00N 51°19' E 001°53'612.4
2017-Nov-14 00:31N 51°25' E 001°58'611.6
2017-Nov-14 00:00N 51°24' E 002°08'612.8
2017-Nov-13 23:30N 51°21' E 002°17'611.7
2017-Nov-13 23:00N 51°22' E 002°26'611.6
2017-Nov-13 22:29N 51°23' E 002°36'510.9
2017-Nov-13 21:59N 51°24' E 002°44'61 3.0
2017-Nov-13 01:59N 51°16' E 004°21'0 0.0
2017-Nov-13 01:29N 51°16' E 004°21'0 0.0
2017-Nov-13 00:56N 51°16' E 004°21'0 0.0
2017-Nov-13 00:29N 51°16' E 004°21'0 0.0
2017-Nov-12 23:59N 51°16' E 004°21'0 0.0
2017-Nov-12 23:26N 51°16' E 004°21'0 0.0
2017-Nov-12 22:59N 51°16' E 004°21'0 0.0
2017-Nov-12 22:29N 51°16' E 004°21'0 0.0
2017-Nov-12 21:59N 51°16' E 004°21'0 0.0
2017-Nov-12 21:29N 51°16' E 004°21'0 0.0
2017-Nov-12 20:59N 51°16' E 004°21'0 0.0
2017-Nov-12 20:29N 51°16' E 004°21'0 0.0
2017-Nov-12 19:59N 51°16' E 004°21'0 0.0
2017-Nov-12 19:29N 51°16' E 004°21'0 0.0
2017-Nov-12 18:59N 51°16' E 004°21'0 0.0
2017-Nov-12 18:26N 51°16' E 004°21'0 0.0
2017-Nov-12 17:56N 51°16' E 004°21'0 0.0
2017-Nov-12 17:29N 51°16' E 004°21'0 0.0
2017-Nov-12 16:59N 51°16' E 004°21'0 0.0
2017-Nov-12 16:29N 51°16' E 004°21'0 0.0
2017-Nov-12 15:59N 51°16' E 004°21'0 0.0
2017-Nov-12 15:29N 51°16' E 004°21'0 0.0
2017-Nov-12 14:59N 51°16' E 004°21'0 0.0
2017-Nov-12 14:29N 51°16' E 004°21'0 0.0
2017-Nov-12 13:59N 51°16' E 004°21'0 0.0
2017-Nov-12 13:29N 51°16' E 004°21'0 0.0
2017-Nov-12 12:59N 51°16' E 004°21'0 0.0
2017-Nov-12 12:29N 51°16' E 004°21'0 0.0
2017-Nov-12 11:59N 51°16' E 004°21'0 0.0
2017-Nov-12 11:29N 51°16' E 004°21'0 0.0
2017-Nov-12 10:59N 51°16' E 004°21'0 0.0
2017-Nov-12 10:26N 51°16' E 004°21'0 0.0
2017-Nov-12 09:59N 51°16' E 004°21'0 0.0
2017-Nov-12 09:29N 51°16' E 004°21'0 0.0
2017-Nov-12 08:59N 51°16' E 004°21'0 0.0
2017-Nov-12 08:29N 51°16' E 004°21'0 0.0
2017-Nov-12 07:56N 51°16' E 004°21'0 0.0
2017-Nov-12 07:29N 51°16' E 004°21'0 0.0
2017-Nov-12 06:59N 51°16' E 004°21'0 0.0
2017-Nov-12 06:29N 51°16' E 004°21'0 0.0
2017-Nov-12 05:59N 51°16' E 004°21'0 0.0
2017-Nov-12 05:29N 51°16' E 004°21'0 0.0
2017-Nov-12 04:56N 51°16' E 004°21'0 0.0
2017-Nov-12 04:29N 51°16' E 004°21'0 0.0
2017-Nov-12 03:59N 51°16' E 004°21'0 0.0
2017-Nov-12 03:29N 51°16' E 004°21'0 0.0
2017-Nov-12 02:59N 51°16' E 004°21'0 0.0
2017-Nov-12 02:26N 51°16' E 004°21'0 0.0
2017-Nov-12 01:59N 51°16' E 004°21'0 0.0
2017-Nov-12 01:29N 51°16' E 004°21'0 0.0
2017-Nov-12 00:56N 51°16' E 004°21'0 0.0
2017-Nov-12 00:29N 51°16' E 004°21'0 0.0
2017-Nov-11 23:59N 51°16' E 004°21'0 0.0
2017-Nov-11 23:29N 51°16' E 004°21'0 0.0
2017-Nov-11 22:59N 51°16' E 004°21'0 0.0
2017-Nov-11 22:29N 51°16' E 004°21'0 0.0
2017-Nov-11 21:59N 51°16' E 004°21'0 0.0
2017-Nov-11 21:29N 51°16' E 004°21'0 0.0
2017-Nov-11 20:59N 51°16' E 004°21'0 0.0
2017-Nov-11 20:29N 51°16' E 004°21'0 0.0
2017-Nov-11 19:59N 51°16' E 004°21'0 0.0
2017-Nov-11 19:29N 51°16' E 004°21'0 0.0
2017-Nov-11 18:59N 51°16' E 004°21'0 0.0
2017-Nov-11 18:29N 51°16' E 004°21'0 0.0
2017-Nov-11 17:59N 51°16' E 004°21'0 0.0
2017-Nov-11 17:29N 51°16' E 004°21'0 0.0
2017-Nov-11 16:59N 51°16' E 004°21'0 0.0
2017-Nov-11 16:29N 51°16' E 004°21'0 0.0
2017-Nov-11 15:59N 51°16' E 004°21'0 0.0
2017-Nov-11 15:29N 51°16' E 004°21'0 0.0
2017-Nov-11 14:59N 51°16' E 004°21'0 0.0
2017-Nov-11 14:29N 51°16' E 004°21'0 0.0
2017-Nov-11 13:59N 51°16' E 004°21'0 0.0
2017-Nov-11 13:29N 51°16' E 004°21'0 0.0
2017-Nov-11 12:59N 51°16' E 004°21'0 0.0
2017-Nov-11 12:29N 51°16' E 004°21'0 0.0
2017-Nov-11 11:59N 51°16' E 004°21'0 0.0
2017-Nov-11 11:29N 51°16' E 004°21'0 0.0
2017-Nov-11 10:59N 51°16' E 004°21'0 0.0
2017-Nov-11 10:29N 51°16' E 004°21'0 0.0
2017-Nov-11 09:59N 51°16' E 004°21'0 0.0
2017-Nov-11 09:29N 51°16' E 004°21'0 0.0
2017-Nov-11 08:59N 51°16' E 004°21'0 0.0
2017-Nov-11 08:29N 51°16' E 004°21'0 0.0
2017-Nov-11 07:59N 51°16' E 004°21'0 0.0
2017-Nov-11 07:29N 51°16' E 004°21'0 0.0
2017-Nov-11 06:59N 51°16' E 004°21'0 0.0
2017-Nov-11 06:29N 51°16' E 004°21'0 0.0
2017-Nov-11 05:59N 51°16' E 004°21'0 0.0
2017-Nov-11 05:29N 51°16' E 004°21'0 0.0
2017-Nov-11 04:59N 51°16' E 004°21'0 0.0
2017-Nov-11 04:29N 51°16' E 004°21'0 0.0
2017-Nov-11 03:59N 51°16' E 004°21'0 0.0
2017-Nov-11 03:29N 51°16' E 004°21'0 0.0
2017-Nov-11 02:59N 51°16' E 004°21'0 0.0
2017-Nov-11 02:29N 51°16' E 004°21'0 0.0
2017-Nov-11 01:59N 51°16' E 004°21'0 0.0
2017-Nov-11 01:29N 51°16' E 004°21'0 0.0
2017-Nov-11 00:59N 51°16' E 004°21'0 0.0
2017-Nov-11 00:29N 51°16' E 004°21'0 0.0
2017-Nov-10 23:59N 51°16' E 004°21'0 0.0
2017-Nov-10 23:29N 51°16' E 004°21'0 0.0
2017-Nov-10 22:59N 51°16' E 004°21'0 0.0
2017-Nov-10 22:29N 51°16' E 004°21'0 0.0
2017-Nov-10 21:59N 51°16' E 004°21'0 0.0
2017-Nov-10 21:29N 51°16' E 004°21'0 0.0
2017-Nov-10 20:59N 51°16' E 004°21'0 0.0
2017-Nov-10 20:29N 51°16' E 004°21'0 0.0
2017-Nov-10 19:59N 51°16' E 004°21'0 0.0
2017-Nov-10 19:29N 51°16' E 004°21'0 0.0
2017-Nov-10 18:59N 51°16' E 004°21'0 0.0
2017-Nov-10 18:26N 51°16' E 004°21'0 0.0
2017-Nov-10 17:59N 51°16' E 004°21'0 0.0
2017-Nov-10 17:29N 51°16' E 004°21'0 0.0
2017-Nov-10 16:59N 51°16' E 004°21'0 0.0
2017-Nov-10 16:29N 51°16' E 004°21'0 0.0
2017-Nov-10 15:59N 51°16' E 004°21'0 0.0
2017-Nov-10 15:29N 51°16' E 004°21'0 0.0
2017-Nov-10 14:59N 51°16' E 004°21'0 0.0
2017-Nov-10 14:29N 51°16' E 004°21'0 0.0
2017-Nov-10 13:59N 51°16' E 004°21'0 0.0
2017-Nov-10 13:20N 51°16' E 004°21'0 0.0
2017-Nov-10 12:59N 51°16' E 004°21'0 0.0
2017-Nov-10 12:29N 51°16' E 004°21'0 0.0
2017-Nov-10 11:59N 51°16' E 004°21'0 0.0
2017-Nov-10 11:29N 51°16' E 004°21'0 0.0
2017-Nov-10 10:59N 51°16' E 004°21'0 0.0
2017-Nov-10 10:23N 51°16' E 004°21'0 0.0
2017-Nov-10 09:59N 51°16' E 004°21'0 0.0
2017-Nov-10 09:29N 51°16' E 004°21'0 0.0
2017-Nov-10 08:59N 51°16' E 004°21'0 0.0
2017-Nov-10 08:29N 51°16' E 004°21'0 0.0
2017-Nov-10 07:56N 51°16' E 004°21'0 0.0
2017-Nov-10 07:29N 51°16' E 004°21'0 0.0
2017-Nov-10 06:59N 51°16' E 004°21'0 0.0
2017-Nov-10 06:29N 51°16' E 004°21'0 0.0
2017-Nov-10 05:59N 51°16' E 004°21'0 0.0
2017-Nov-10 05:29N 51°16' E 004°21'0 0.0
2017-Nov-10 04:44N 51°16' E 004°21'0 0.0
2017-Nov-10 04:29N 51°16' E 004°21'0 0.0
2017-Nov-10 03:59N 51°16' E 004°21'0 0.0
2017-Nov-10 03:29N 51°16' E 004°21'0 0.0
2017-Nov-10 02:59N 51°16' E 004°21'0 0.0
2017-Nov-10 02:29N 51°16' E 004°21'0 0.0
2017-Nov-10 01:59N 51°16' E 004°21'0 0.0
2017-Nov-10 01:29N 51°16' E 004°21'0 0.0
2017-Nov-10 00:59N 51°16' E 004°21'0 0.0
2017-Nov-10 00:29N 51°16' E 004°21'0 0.0
2017-Nov-09 23:59N 51°16' E 004°21'0 0.0
2017-Nov-09 23:29N 51°16' E 004°21'0 0.0
2017-Nov-09 22:59N 51°16' E 004°21'0 0.0
2017-Nov-09 22:29N 51°16' E 004°21'0 0.0
2017-Nov-09 21:59N 51°16' E 004°21'0 0.0
2017-Nov-09 21:29N 51°16' E 004°21'0 0.0
2017-Nov-09 20:59N 51°16' E 004°21'0 0.0
2017-Nov-09 20:29N 51°16' E 004°21'0 0.0
2017-Nov-09 19:59N 51°16' E 004°21'0 0.0
2017-Nov-09 19:29N 51°16' E 004°21'0 0.0
2017-Nov-09 18:53N 51°16' E 004°21'0 0.0
2017-Nov-09 18:29N 51°16' E 004°21'0 0.0
2017-Nov-09 17:59N 51°16' E 004°21'0 0.0
2017-Nov-09 17:29N 51°16' E 004°21'0 0.0
2017-Nov-09 16:59N 51°16' E 004°21'0 0.0
2017-Nov-09 16:28N 51°16' E 004°21'0 0.0
2017-Nov-09 15:46N 51°16' E 004°21'0 0.0
2017-Nov-09 15:29N 51°16' E 004°21'0 0.0
2017-Nov-09 14:58N 51°16' E 004°21'0 0.0
2017-Nov-09 14:29N 51°16' E 004°21'0 0.0
2017-Nov-09 13:58N 51°16' E 004°21'0 0.0
2017-Nov-09 13:28N 51°16' E 004°21'0 0.0
2017-Nov-09 12:58N 51°16' E 004°21'0 0.0
2017-Nov-09 12:25N 51°16' E 004°21'0 0.0
2017-Nov-09 11:59N 51°16' E 004°21'0 0.0
2017-Nov-09 11:28N 51°16' E 004°21'0 0.0
2017-Nov-09 10:58N 51°16' E 004°21'0 0.0
2017-Nov-09 10:29N 51°16' E 004°21'0 0.0
2017-Nov-09 09:55N 51°16' E 004°21'0 0.0
2017-Nov-09 09:28N 51°16' E 004°21'0 0.0
2017-Nov-09 08:58N 51°16' E 004°21'0 0.0
2017-Nov-09 08:28N 51°16' E 004°21'0 0.0
2017-Nov-09 07:58N 51°16' E 004°21'0 0.0
2017-Nov-09 07:29N 51°16' E 004°21'0 0.0
2017-Nov-09 06:58N 51°16' E 004°21'0 0.0
2017-Nov-09 06:29N 51°16' E 004°21'  
Track history (hours):
 
Tides and Currents Weather Stations Pressure Air Temp Water Temp Dewpoint Dewpoint Depression Visibility Wind Speed Wind Dir Waves Ship Positions

Navigator Spirit

Last reported at 2017-Nov-19 06:26 UTC. Time now 2017-Nov-20 21:30 UTC.
Position N 37°14' W 029°51'.

Length 241 m; draft 11.8 m.

Type: Tanker. MMSI: 309198000.

Date/timePositionNaut miles runAvg speedWind from/ knotsBaromVisibWave heightAir tempDewpointWater temp
2017-Nov-19 06:26N 37°14' W 029°51'510.7
2017-Nov-19 06:00N 37°15' W 029°46'510.7
2017-Nov-19 05:30N 37°17' W 029°39'510.9
2017-Nov-19 05:00N 37°18' W 029°33'510.5
2017-Nov-19 04:30N 37°20' W 029°26'611.2
2017-Nov-19 04:01N 37°21' W 029°20'510.9
2017-Nov-19 03:30N 37°23' W 029°13'511.0
2017-Nov-19 03:00N 37°24' W 029°07'611.7
2017-Nov-19 02:30N 37°26' W 028°59'611.9
2017-Nov-19 02:00N 37°28' W 028°52'612.4
2017-Nov-19 01:31N 37°29' W 028°45'612.3
2017-Nov-19 01:00N 37°31' W 028°37'612.5
2017-Nov-19 00:30N 37°33' W 028°30'612.3
2017-Nov-19 00:00N 37°34' W 028°22'612.3
2017-Nov-18 23:30N 37°36' W 028°15'612.5
2017-Nov-18 23:00N 37°38' W 028°07'713.1
2017-Nov-18 22:30N 37°39' W 027°59'612.8
2017-Nov-18 22:00N 37°41' W 027°51'612.6
2017-Nov-18 21:30N 37°43' W 027°44'612.4
2017-Nov-18 21:00N 37°45' W 027°36'612.2
2017-Nov-18 20:30N 37°47' W 027°29'612.6
2017-Nov-18 20:00N 37°48' W 027°21'713.2
2017-Nov-18 19:30N 37°50' W 027°13'713.4
2017-Nov-18 19:00N 37°52' W 027°05'612.9
2017-Nov-18 18:31N 37°54' W 026°57'713.1
2017-Nov-18 18:00N 37°56' W 026°49'612.9
2017-Nov-18 17:30N 37°57' W 026°41'612.9
2017-Nov-18 17:01N 37°59' W 026°34'612.7
2017-Nov-18 16:30N 38°03' W 026°27'713.4
2017-Nov-18 16:00N 38°07' W 026°20'713.2
2017-Nov-18 15:30N 38°11' W 026°14'713.1
2017-Nov-18 15:00N 38°15' W 026°08'713.3
2017-Nov-18 14:30N 38°20' W 026°01'713.1
2017-Nov-18 14:00N 38°24' W 025°55'612.7
2017-Nov-18 13:31N 38°28' W 025°49'612.9
2017-Nov-18 13:00N 38°33' W 025°43'713.2
2017-Nov-18 12:30N 38°37' W 025°37'713.3
2017-Nov-18 12:01N 38°42' W 025°30'713.3
2017-Nov-18 11:30N 38°46' W 025°24'  
2017-Nov-15 08:36N 48°58' W 007°23'813.9
2017-Nov-15 08:00N 49°02' W 007°11'1514.1
2017-Nov-15 06:57N 49°07' W 006°50'613.2
2017-Nov-15 06:29N 49°09' W 006°41'713.5
2017-Nov-15 05:56N 49°12' W 006°31'713.8
2017-Nov-15 05:25N 49°14' W 006°20'613.5
2017-Nov-15 04:57N 49°17' W 006°12'712.4
2017-Nov-15 04:25N 49°20' W 006°02'612.7
2017-Nov-15 03:56N 49°21' W 005°53'712.8
2017-Nov-15 03:24N 49°23' W 005°43'512.6
2017-Nov-15 03:00N 49°25' W 005°36'6112.3
2017-Nov-14 22:03N 49°52' W 004°12'513.9
2017-Nov-14 21:43N 49°55' W 004°06'513.9
2017-Nov-14 21:21N 49°57' W 003°60'514.1
2017-Nov-14 21:00N 49°60' W 003°53'714.1
2017-Nov-14 20:31N 50°02' W 003°43'713.9
2017-Nov-14 20:00N 50°05' W 003°33'713.6
2017-Nov-14 19:30N 50°07' W 003°23'612.1
2017-Nov-14 19:00N 50°13' W 003°20'713.5
2017-Nov-14 18:30N 50°20' W 003°22'510.4
2017-Nov-14 18:00N 50°25' W 003°23'3 6.3
2017-Nov-14 17:30N 50°26' W 003°18'612.2
2017-Nov-14 17:00N 50°25' W 003°09'611.9
2017-Nov-14 16:30N 50°24' W 002°60'611.6
2017-Nov-14 16:00N 50°24' W 002°51'611.6
2017-Nov-14 15:30N 50°23' W 002°42'611.7
2017-Nov-14 15:00N 50°22' W 002°32'611.9
2017-Nov-14 14:30N 50°22' W 002°23'612.3
2017-Nov-14 14:00N 50°23' W 002°14'1013.0
2017-Nov-14 13:15N 50°24' W 001°58'713.7
2017-Nov-14 12:43N 50°24' W 001°47'1514.4
2017-Nov-14 11:41N 50°25' W 001°23'414.8
2017-Nov-14 11:25N 50°26' W 001°17'1014.9
2017-Nov-14 10:43N 50°27' W 001°01'2413.9
2017-Nov-14 08:57N 50°29' W 000°23'613.1
2017-Nov-14 08:30N 50°30' W 000°14'612.8
2017-Nov-14 08:00N 50°32' W 000°04'612.2
2017-Nov-14 07:30N 50°33' E 000°05'611.8
2017-Nov-14 07:00N 50°34' E 000°15'611.6
2017-Nov-14 06:30N 50°35' E 000°23'611.5
2017-Nov-14 06:00N 50°37' E 000°32'611.5
2017-Nov-14 05:30N 50°39' E 000°40'612.1
2017-Nov-14 05:00N 50°43' E 000°48'612.5
2017-Nov-14 04:30N 50°47' E 000°56'713.3
2017-Nov-14 03:59N 50°51' E 001°05'714.1
2017-Nov-14 03:30N 50°56' E 001°12'714.8
2017-Nov-14 03:01N 51°00' E 001°21'714.6
2017-Nov-14 02:30N 51°05' E 001°30'714.3
2017-Nov-14 02:00N 51°09' E 001°39'713.7
2017-Nov-14 01:30N 51°14' E 001°47'713.1
2017-Nov-14 01:00N 51°19' E 001°53'612.4
2017-Nov-14 00:31N 51°25' E 001°58'611.6
2017-Nov-14 00:00N 51°24' E 002°08'612.8
2017-Nov-13 23:30N 51°21' E 002°17'611.7
2017-Nov-13 23:00N 51°22' E 002°26'611.6
2017-Nov-13 22:29N 51°23' E 002°36'510.9
2017-Nov-13 21:59N 51°24' E 002°44'61 3.0
2017-Nov-13 01:59N 51°16' E 004°21'0 0.0
2017-Nov-13 01:29N 51°16' E 004°21'0 0.0
2017-Nov-13 00:56N 51°16' E 004°21'0 0.0
2017-Nov-13 00:29N 51°16' E 004°21'0 0.0
2017-Nov-12 23:59N 51°16' E 004°21'0 0.0
2017-Nov-12 23:26N 51°16' E 004°21'0 0.0
2017-Nov-12 22:59N 51°16' E 004°21'0 0.0
2017-Nov-12 22:29N 51°16' E 004°21'0 0.0
2017-Nov-12 21:59N 51°16' E 004°21'0 0.0
2017-Nov-12 21:29N 51°16' E 004°21'0 0.0
2017-Nov-12 20:59N 51°16' E 004°21'0 0.0
2017-Nov-12 20:29N 51°16' E 004°21'0 0.0
2017-Nov-12 19:59N 51°16' E 004°21'0 0.0
2017-Nov-12 19:29N 51°16' E 004°21'0 0.0
2017-Nov-12 18:59N 51°16' E 004°21'0 0.0
2017-Nov-12 18:26N 51°16' E 004°21'0 0.0
2017-Nov-12 17:56N 51°16' E 004°21'0 0.0
2017-Nov-12 17:29N 51°16' E 004°21'0 0.0
2017-Nov-12 16:59N 51°16' E 004°21'0 0.0
2017-Nov-12 16:29N 51°16' E 004°21'0 0.0
2017-Nov-12 15:59N 51°16' E 004°21'0 0.0
2017-Nov-12 15:29N 51°16' E 004°21'0 0.0
2017-Nov-12 14:59N 51°16' E 004°21'0 0.0
2017-Nov-12 14:29N 51°16' E 004°21'0 0.0
2017-Nov-12 13:59N 51°16' E 004°21'0 0.0
2017-Nov-12 13:29N 51°16' E 004°21'0 0.0
2017-Nov-12 12:59N 51°16' E 004°21'0 0.0
2017-Nov-12 12:29N 51°16' E 004°21'0 0.0
2017-Nov-12 11:59N 51°16' E 004°21'0 0.0
2017-Nov-12 11:29N 51°16' E 004°21'0 0.0
2017-Nov-12 10:59N 51°16' E 004°21'0 0.0
2017-Nov-12 10:26N 51°16' E 004°21'0 0.0
2017-Nov-12 09:59N 51°16' E 004°21'0 0.0
2017-Nov-12 09:29N 51°16' E 004°21'0 0.0
2017-Nov-12 08:59N 51°16' E 004°21'0 0.0
2017-Nov-12 08:29N 51°16' E 004°21'0 0.0
2017-Nov-12 07:56N 51°16' E 004°21'0 0.0
2017-Nov-12 07:29N 51°16' E 004°21'0 0.0
2017-Nov-12 06:59N 51°16' E 004°21'0 0.0
2017-Nov-12 06:29N 51°16' E 004°21'0 0.0
2017-Nov-12 05:59N 51°16' E 004°21'0 0.0
2017-Nov-12 05:29N 51°16' E 004°21'0 0.0
2017-Nov-12 04:56N 51°16' E 004°21'0 0.0
2017-Nov-12 04:29N 51°16' E 004°21'0 0.0
2017-Nov-12 03:59N 51°16' E 004°21'0 0.0
2017-Nov-12 03:29N 51°16' E 004°21'0 0.0
2017-Nov-12 02:59N 51°16' E 004°21'0 0.0
2017-Nov-12 02:26N 51°16' E 004°21'0 0.0
2017-Nov-12 01:59N 51°16' E 004°21'0 0.0
2017-Nov-12 01:29N 51°16' E 004°21'0 0.0
2017-Nov-12 00:56N 51°16' E 004°21'0 0.0
2017-Nov-12 00:29N 51°16' E 004°21'0 0.0
2017-Nov-11 23:59N 51°16' E 004°21'0 0.0
2017-Nov-11 23:29N 51°16' E 004°21'0 0.0
2017-Nov-11 22:59N 51°16' E 004°21'0 0.0
2017-Nov-11 22:29N 51°16' E 004°21'0 0.0
2017-Nov-11 21:59N 51°16' E 004°21'0 0.0
2017-Nov-11 21:29N 51°16' E 004°21'0 0.0
2017-Nov-11 20:59N 51°16' E 004°21'0 0.0
2017-Nov-11 20:29N 51°16' E 004°21'0 0.0
2017-Nov-11 19:59N 51°16' E 004°21'0 0.0
2017-Nov-11 19:29N 51°16' E 004°21'0 0.0
2017-Nov-11 18:59N 51°16' E 004°21'0 0.0
2017-Nov-11 18:29N 51°16' E 004°21'0 0.0
2017-Nov-11 17:59N 51°16' E 004°21'0 0.0
2017-Nov-11 17:29N 51°16' E 004°21'0 0.0
2017-Nov-11 16:59N 51°16' E 004°21'0 0.0
2017-Nov-11 16:29N 51°16' E 004°21'0 0.0
2017-Nov-11 15:59N 51°16' E 004°21'0 0.0
2017-Nov-11 15:29N 51°16' E 004°21'0 0.0
2017-Nov-11 14:59N 51°16' E 004°21'0 0.0
2017-Nov-11 14:29N 51°16' E 004°21'0 0.0
2017-Nov-11 13:59N 51°16' E 004°21'0 0.0
2017-Nov-11 13:29N 51°16' E 004°21'0 0.0
2017-Nov-11 12:59N 51°16' E 004°21'0 0.0
2017-Nov-11 12:29N 51°16' E 004°21'0 0.0
2017-Nov-11 11:59N 51°16' E 004°21'0 0.0
2017-Nov-11 11:29N 51°16' E 004°21'0 0.0
2017-Nov-11 10:59N 51°16' E 004°21'0 0.0
2017-Nov-11 10:29N 51°16' E 004°21'0 0.0
2017-Nov-11 09:59N 51°16' E 004°21'0 0.0
2017-Nov-11 09:29N 51°16' E 004°21'0 0.0
2017-Nov-11 08:59N 51°16' E 004°21'0 0.0
2017-Nov-11 08:29N 51°16' E 004°21'0 0.0
2017-Nov-11 07:59N 51°16' E 004°21'0 0.0
2017-Nov-11 07:29N 51°16' E 004°21'0 0.0
2017-Nov-11 06:59N 51°16' E 004°21'0 0.0
2017-Nov-11 06:29N 51°16' E 004°21'0 0.0
2017-Nov-11 05:59N 51°16' E 004°21'0 0.0
2017-Nov-11 05:29N 51°16' E 004°21'0 0.0
2017-Nov-11 04:59N 51°16' E 004°21'0 0.0
2017-Nov-11 04:29N 51°16' E 004°21'0 0.0
2017-Nov-11 03:59N 51°16' E 004°21'0 0.0
2017-Nov-11 03:29N 51°16' E 004°21'0 0.0
2017-Nov-11 02:59N 51°16' E 004°21'0 0.0
2017-Nov-11 02:29N 51°16' E 004°21'0 0.0
2017-Nov-11 01:59N 51°16' E 004°21'0 0.0
2017-Nov-11 01:29N 51°16' E 004°21'0 0.0
2017-Nov-11 00:59N 51°16' E 004°21'0 0.0
2017-Nov-11 00:29N 51°16' E 004°21'0 0.0
2017-Nov-10 23:59N 51°16' E 004°21'0 0.0
2017-Nov-10 23:29N 51°16' E 004°21'0 0.0
2017-Nov-10 22:59N 51°16' E 004°21'0 0.0
2017-Nov-10 22:29N 51°16' E 004°21'0 0.0
2017-Nov-10 21:59N 51°16' E 004°21'0 0.0
2017-Nov-10 21:29N 51°16' E 004°21'0 0.0
2017-Nov-10 20:59N 51°16' E 004°21'0 0.0
2017-Nov-10 20:29N 51°16' E 004°21'0 0.0
2017-Nov-10 19:59N 51°16' E 004°21'0 0.0
2017-Nov-10 19:29N 51°16' E 004°21'0 0.0
2017-Nov-10 18:59N 51°16' E 004°21'0 0.0
2017-Nov-10 18:26N 51°16' E 004°21'0 0.0
2017-Nov-10 17:59N 51°16' E 004°21'0 0.0
2017-Nov-10 17:29N 51°16' E 004°21'0 0.0
2017-Nov-10 16:59N 51°16' E 004°21'0 0.0
2017-Nov-10 16:29N 51°16' E 004°21'0 0.0
2017-Nov-10 15:59N 51°16' E 004°21'0 0.0
2017-Nov-10 15:29N 51°16' E 004°21'0 0.0
2017-Nov-10 14:59N 51°16' E 004°21'0 0.0
2017-Nov-10 14:29N 51°16' E 004°21'0 0.0
2017-Nov-10 13:59N 51°16' E 004°21'0 0.0
2017-Nov-10 13:20N 51°16' E 004°21'0 0.0
2017-Nov-10 12:59N 51°16' E 004°21'0 0.0
2017-Nov-10 12:29N 51°16' E 004°21'0 0.0
2017-Nov-10 11:59N 51°16' E 004°21'0 0.0
2017-Nov-10 11:29N 51°16' E 004°21'0 0.0
2017-Nov-10 10:59N 51°16' E 004°21'0 0.0
2017-Nov-10 10:23N 51°16' E 004°21'0 0.0
2017-Nov-10 09:59N 51°16' E 004°21'0 0.0
2017-Nov-10 09:29N 51°16' E 004°21'0 0.0
2017-Nov-10 08:59N 51°16' E 004°21'0 0.0
2017-Nov-10 08:29N 51°16' E 004°21'0 0.0
2017-Nov-10 07:56N 51°16' E 004°21'0 0.0
2017-Nov-10 07:29N 51°16' E 004°21'0 0.0
2017-Nov-10 06:59N 51°16' E 004°21'0 0.0
2017-Nov-10 06:29N 51°16' E 004°21'0 0.0
2017-Nov-10 05:59N 51°16' E 004°21'0 0.0
2017-Nov-10 05:29N 51°16' E 004°21'0 0.0
2017-Nov-10 04:44N 51°16' E 004°21'0 0.0
2017-Nov-10 04:29N 51°16' E 004°21'0 0.0
2017-Nov-10 03:59N 51°16' E 004°21'0 0.0
2017-Nov-10 03:29N 51°16' E 004°21'0 0.0
2017-Nov-10 02:59N 51°16' E 004°21'0 0.0
2017-Nov-10 02:29N 51°16' E 004°21'0 0.0
2017-Nov-10 01:59N 51°16' E 004°21'0 0.0
2017-Nov-10 01:29N 51°16' E 004°21'0 0.0
2017-Nov-10 00:59N 51°16' E 004°21'0 0.0
2017-Nov-10 00:29N 51°16' E 004°21'0 0.0
2017-Nov-09 23:59N 51°16' E 004°21'0 0.0
2017-Nov-09 23:29N 51°16' E 004°21'0 0.0
2017-Nov-09 22:59N 51°16' E 004°21'0 0.0
2017-Nov-09 22:29N 51°16' E 004°21'0 0.0
2017-Nov-09 21:59N 51°16' E 004°21'0 0.0
2017-Nov-09 21:29N 51°16' E 004°21'0 0.0
2017-Nov-09 20:59N 51°16' E 004°21'0 0.0
2017-Nov-09 20:29N 51°16' E 004°21'0 0.0
2017-Nov-09 19:59N 51°16' E 004°21'0 0.0
2017-Nov-09 19:29N 51°16' E 004°21'0 0.0
2017-Nov-09 18:53N 51°16' E 004°21'0 0.0
2017-Nov-09 18:29N 51°16' E 004°21'0 0.0
2017-Nov-09 17:59N 51°16' E 004°21'0 0.0
2017-Nov-09 17:29N 51°16' E 004°21'0 0.0
2017-Nov-09 16:59N 51°16' E 004°21'0 0.0
2017-Nov-09 16:28N 51°16' E 004°21'0 0.0
2017-Nov-09 15:46N 51°16' E 004°21'0 0.0
2017-Nov-09 15:29N 51°16' E 004°21'0 0.0
2017-Nov-09 14:58N 51°16' E 004°21'0 0.0
2017-Nov-09 14:29N 51°16' E 004°21'0 0.0
2017-Nov-09 13:58N 51°16' E 004°21'0 0.0
2017-Nov-09 13:28N 51°16' E 004°21'0 0.0
2017-Nov-09 12:58N 51°16' E 004°21'0 0.0
2017-Nov-09 12:25N 51°16' E 004°21'0 0.0
2017-Nov-09 11:59N 51°16' E 004°21'0 0.0
2017-Nov-09 11:28N 51°16' E 004°21'0 0.0
2017-Nov-09 10:58N 51°16' E 004°21'0 0.0
2017-Nov-09 10:29N 51°16' E 004°21'0 0.0
2017-Nov-09 09:55N 51°16' E 004°21'0 0.0
2017-Nov-09 09:28N 51°16' E 004°21'0 0.0
2017-Nov-09 08:58N 51°16' E 004°21'0 0.0
2017-Nov-09 08:28N 51°16' E 004°21'0 0.0
2017-Nov-09 07:58N 51°16' E 004°21'0 0.0
2017-Nov-09 07:29N 51°16' E 004°21'0 0.0
2017-Nov-09 06:58N 51°16' E 004°21'0 0.0
2017-Nov-09 06:29N 51°16' E 004°21'  

Dump ship's entire track history